sensor_id;sensor_type;location;lat;lon;timestamp;P1;durP1;ratioP1;P2;durP2;ratioP2
71767;SDS011;59604;52.138;5.446;2023-02-25T00:01:23;13.27;;;2.17;;
71767;SDS011;59604;52.138;5.446;2023-02-25T00:03:52;10.63;;;1.70;;
71767;SDS011;59604;52.138;5.446;2023-02-25T00:06:20;5.53;;;1.38;;
71767;SDS011;59604;52.138;5.446;2023-02-25T00:08:49;9.75;;;1.45;;
71767;SDS011;59604;52.138;5.446;2023-02-25T00:11:17;10.38;;;2.35;;
71767;SDS011;59604;52.138;5.446;2023-02-25T00:13:45;14.20;;;1.90;;
71767;SDS011;59604;52.138;5.446;2023-02-25T00:16:12;10.82;;;1.40;;
71767;SDS011;59604;52.138;5.446;2023-02-25T00:18:39;14.20;;;1.75;;
71767;SDS011;59604;52.138;5.446;2023-02-25T00:21:09;11.05;;;1.20;;
71767;SDS011;59604;52.138;5.446;2023-02-25T00:23:43;9.20;;;1.10;;
71767;SDS011;59604;52.138;5.446;2023-02-25T00:26:12;8.20;;;1.05;;
71767;SDS011;59604;52.138;5.446;2023-02-25T00:28:39;8.57;;;1.00;;
71767;SDS011;59604;52.138;5.446;2023-02-25T00:31:07;8.15;;;1.00;;
71767;SDS011;59604;52.138;5.446;2023-02-25T00:33:35;5.38;;;0.80;;
71767;SDS011;59604;52.138;5.446;2023-02-25T00:36:08;9.38;;;1.67;;
71767;SDS011;59604;52.138;5.446;2023-02-25T00:38:35;7.43;;;0.90;;
71767;SDS011;59604;52.138;5.446;2023-02-25T00:41:05;5.57;;;0.88;;
71767;SDS011;59604;52.138;5.446;2023-02-25T00:43:41;7.53;;;0.98;;
71767;SDS011;59604;52.138;5.446;2023-02-25T00:46:09;11.65;;;1.48;;
71767;SDS011;59604;52.138;5.446;2023-02-25T00:48:36;7.80;;;1.05;;
71767;SDS011;59604;52.138;5.446;2023-02-25T00:51:05;5.35;;;0.95;;
71767;SDS011;59604;52.138;5.446;2023-02-25T00:53:32;10.27;;;1.13;;
71767;SDS011;59604;52.138;5.446;2023-02-25T00:56:00;11.50;;;0.93;;
71767;SDS011;59604;52.138;5.446;2023-02-25T00:58:27;9.15;;;1.25;;
71767;SDS011;59604;52.138;5.446;2023-02-25T01:00:53;10.75;;;1.50;;
71767;SDS011;59604;52.138;5.446;2023-02-25T01:03:20;9.95;;;1.20;;
71767;SDS011;59604;52.138;5.446;2023-02-25T01:05:47;7.20;;;0.93;;
71767;SDS011;59604;52.138;5.446;2023-02-25T01:08:16;7.97;;;1.10;;
71767;SDS011;59604;52.138;5.446;2023-02-25T01:10:44;12.07;;;1.88;;
71767;SDS011;59604;52.138;5.446;2023-02-25T01:13:12;9.00;;;1.17;;
71767;SDS011;59604;52.138;5.446;2023-02-25T01:15:40;8.02;;;1.58;;
71767;SDS011;59604;52.138;5.446;2023-02-25T01:18:07;6.00;;;0.80;;
71767;SDS011;59604;52.138;5.446;2023-02-25T01:20:36;10.05;;;1.17;;
71767;SDS011;59604;52.138;5.446;2023-02-25T01:23:03;8.35;;;0.77;;
71767;SDS011;59604;52.138;5.446;2023-02-25T01:25:30;10.82;;;2.22;;
71767;SDS011;59604;52.138;5.446;2023-02-25T01:27:56;5.50;;;0.95;;
71767;SDS011;59604;52.138;5.446;2023-02-25T01:30:23;7.70;;;1.10;;
71767;SDS011;59604;52.138;5.446;2023-02-25T01:32:49;9.05;;;1.00;;
71767;SDS011;59604;52.138;5.446;2023-02-25T01:35:16;9.88;;;1.05;;
71767;SDS011;59604;52.138;5.446;2023-02-25T01:37:43;10.93;;;1.30;;
71767;SDS011;59604;52.138;5.446;2023-02-25T01:40:12;9.10;;;0.93;;
71767;SDS011;59604;52.138;5.446;2023-02-25T01:42:43;9.35;;;1.13;;
71767;SDS011;59604;52.138;5.446;2023-02-25T01:50:23;8.15;;;1.33;;
71767;SDS011;59604;52.138;5.446;2023-02-25T01:52:56;7.30;;;0.88;;
71767;SDS011;59604;52.138;5.446;2023-02-25T01:55:25;8.93;;;1.40;;
71767;SDS011;59604;52.138;5.446;2023-02-25T01:57:51;10.07;;;1.20;;
71767;SDS011;59604;52.138;5.446;2023-02-25T02:00:18;7.53;;;1.10;;
71767;SDS011;59604;52.138;5.446;2023-02-25T02:02:46;11.43;;;1.00;;
71767;SDS011;59604;52.138;5.446;2023-02-25T02:05:14;8.15;;;0.95;;
71767;SDS011;59604;52.138;5.446;2023-02-25T02:07:41;9.55;;;1.00;;
71767;SDS011;59604;52.138;5.446;2023-02-25T02:10:08;6.55;;;0.90;;
71767;SDS011;59604;52.138;5.446;2023-02-25T02:12:36;8.07;;;1.10;;
71767;SDS011;59604;52.138;5.446;2023-02-25T02:15:07;7.13;;;1.15;;
71767;SDS011;59604;52.138;5.446;2023-02-25T02:17:39;8.55;;;1.10;;
71767;SDS011;59604;52.138;5.446;2023-02-25T02:20:10;7.65;;;0.90;;
71767;SDS011;59604;52.138;5.446;2023-02-25T02:33:37;8.27;;;1.05;;
71767;SDS011;59604;52.138;5.446;2023-02-25T02:42:09;11.55;;;1.25;;
71767;SDS011;59604;52.138;5.446;2023-02-25T02:44:56;9.48;;;1.55;;
71767;SDS011;59604;52.138;5.446;2023-02-25T02:47:33;12.05;;;1.33;;
71767;SDS011;59604;52.138;5.446;2023-02-25T02:50:04;15.10;;;2.03;;
71767;SDS011;59604;52.138;5.446;2023-02-25T02:52:36;13.93;;;1.27;;
71767;SDS011;59604;52.138;5.446;2023-02-25T02:55:12;11.20;;;1.33;;
71767;SDS011;59604;52.138;5.446;2023-02-25T02:57:48;10.45;;;1.23;;
71767;SDS011;59604;52.138;5.446;2023-02-25T03:00:18;14.80;;;1.23;;
71767;SDS011;59604;52.138;5.446;2023-02-25T03:02:55;10.90;;;1.30;;
71767;SDS011;59604;52.138;5.446;2023-02-25T03:05:26;8.75;;;1.30;;
71767;SDS011;59604;52.138;5.446;2023-02-25T03:08:02;7.80;;;1.10;;
71767;SDS011;59604;52.138;5.446;2023-02-25T03:10:30;6.53;;;1.25;;
71767;SDS011;59604;52.138;5.446;2023-02-25T03:12:57;10.13;;;1.33;;
71767;SDS011;59604;52.138;5.446;2023-02-25T03:15:24;13.93;;;1.70;;
71767;SDS011;59604;52.138;5.446;2023-02-25T03:18:01;10.77;;;1.58;;
71767;SDS011;59604;52.138;5.446;2023-02-25T03:20:36;13.13;;;1.73;;
71767;SDS011;59604;52.138;5.446;2023-02-25T03:23:08;12.52;;;1.00;;
71767;SDS011;59604;52.138;5.446;2023-02-25T03:25:42;12.93;;;1.40;;
71767;SDS011;59604;52.138;5.446;2023-02-25T03:28:36;10.77;;;1.30;;
71767;SDS011;59604;52.138;5.446;2023-02-25T03:36:02;13.32;;;1.60;;
71767;SDS011;59604;52.138;5.446;2023-02-25T03:38:34;13.90;;;1.52;;
71767;SDS011;59604;52.138;5.446;2023-02-25T03:41:06;7.13;;;0.70;;
71767;SDS011;59604;52.138;5.446;2023-02-25T03:43:37;9.27;;;1.58;;
71767;SDS011;59604;52.138;5.446;2023-02-25T03:46:10;9.98;;;1.08;;
71767;SDS011;59604;52.138;5.446;2023-02-25T03:48:39;12.90;;;1.55;;
71767;SDS011;59604;52.138;5.446;2023-02-25T03:51:06;8.93;;;1.02;;
71767;SDS011;59604;52.138;5.446;2023-02-25T03:53:34;13.98;;;1.42;;
71767;SDS011;59604;52.138;5.446;2023-02-25T03:56:02;10.02;;;1.20;;
71767;SDS011;59604;52.138;5.446;2023-02-25T03:58:32;12.73;;;1.30;;
71767;SDS011;59604;52.138;5.446;2023-02-25T04:03:30;8.90;;;1.15;;
71767;SDS011;59604;52.138;5.446;2023-02-25T04:05:57;8.93;;;1.20;;
71767;SDS011;59604;52.138;5.446;2023-02-25T04:08:24;9.70;;;1.40;;
71767;SDS011;59604;52.138;5.446;2023-02-25T04:10:50;10.85;;;1.10;;
71767;SDS011;59604;52.138;5.446;2023-02-25T04:13:17;7.25;;;0.90;;
71767;SDS011;59604;52.138;5.446;2023-02-25T04:15:47;10.73;;;1.42;;
71767;SDS011;59604;52.138;5.446;2023-02-25T04:18:14;8.70;;;1.27;;
71767;SDS011;59604;52.138;5.446;2023-02-25T04:20:41;8.00;;;1.35;;
71767;SDS011;59604;52.138;5.446;2023-02-25T04:23:12;10.15;;;1.30;;
71767;SDS011;59604;52.138;5.446;2023-02-25T04:25:43;10.57;;;1.27;;
71767;SDS011;59604;52.138;5.446;2023-02-25T04:28:10;8.73;;;1.20;;
71767;SDS011;59604;52.138;5.446;2023-02-25T04:30:36;8.82;;;0.90;;
71767;SDS011;59604;52.138;5.446;2023-02-25T04:33:03;8.57;;;1.13;;
71767;SDS011;59604;52.138;5.446;2023-02-25T04:35:30;5.82;;;1.02;;
71767;SDS011;59604;52.138;5.446;2023-02-25T04:37:57;6.07;;;0.80;;
71767;SDS011;59604;52.138;5.446;2023-02-25T04:40:23;13.18;;;1.45;;
71767;SDS011;59604;52.138;5.446;2023-02-25T04:42:50;12.40;;;1.40;;
71767;SDS011;59604;52.138;5.446;2023-02-25T04:45:16;11.20;;;1.40;;
71767;SDS011;59604;52.138;5.446;2023-02-25T04:47:43;9.82;;;1.10;;
71767;SDS011;59604;52.138;5.446;2023-02-25T04:50:10;7.85;;;1.02;;
71767;SDS011;59604;52.138;5.446;2023-02-25T04:52:37;9.80;;;1.05;;
71767;SDS011;59604;52.138;5.446;2023-02-25T04:55:04;12.23;;;1.67;;
71767;SDS011;59604;52.138;5.446;2023-02-25T04:57:31;8.68;;;1.20;;
71767;SDS011;59604;52.138;5.446;2023-02-25T04:59:58;12.75;;;1.20;;
71767;SDS011;59604;52.138;5.446;2023-02-25T05:02:24;6.93;;;1.25;;
71767;SDS011;59604;52.138;5.446;2023-02-25T05:04:51;11.45;;;1.10;;
71767;SDS011;59604;52.138;5.446;2023-02-25T05:07:18;5.53;;;0.80;;
71767;SDS011;59604;52.138;5.446;2023-02-25T05:09:44;10.07;;;1.42;;
71767;SDS011;59604;52.138;5.446;2023-02-25T05:12:11;8.02;;;1.35;;
71767;SDS011;59604;52.138;5.446;2023-02-25T05:14:38;6.93;;;0.80;;
71767;SDS011;59604;52.138;5.446;2023-02-25T05:17:04;9.95;;;1.30;;
71767;SDS011;59604;52.138;5.446;2023-02-25T05:19:31;14.25;;;1.23;;
71767;SDS011;59604;52.138;5.446;2023-02-25T05:21:57;9.88;;;1.20;;
71767;SDS011;59604;52.138;5.446;2023-02-25T05:24:24;9.80;;;1.25;;
71767;SDS011;59604;52.138;5.446;2023-02-25T05:26:50;10.70;;;0.98;;
71767;SDS011;59604;52.138;5.446;2023-02-25T05:29:17;8.13;;;1.10;;
71767;SDS011;59604;52.138;5.446;2023-02-25T05:31:44;10.20;;;1.30;;
71767;SDS011;59604;52.138;5.446;2023-02-25T05:34:11;13.52;;;1.42;;
71767;SDS011;59604;52.138;5.446;2023-02-25T05:36:38;8.05;;;1.17;;
71767;SDS011;59604;52.138;5.446;2023-02-25T05:39:05;16.50;;;1.30;;
71767;SDS011;59604;52.138;5.446;2023-02-25T05:41:32;12.25;;;1.40;;
71767;SDS011;59604;52.138;5.446;2023-02-25T05:43:58;10.27;;;0.90;;
71767;SDS011;59604;52.138;5.446;2023-02-25T05:46:25;11.32;;;1.30;;
71767;SDS011;59604;52.138;5.446;2023-02-25T05:48:52;16.75;;;1.33;;
71767;SDS011;59604;52.138;5.446;2023-02-25T05:51:19;10.48;;;1.15;;
71767;SDS011;59604;52.138;5.446;2023-02-25T05:53:49;12.85;;;1.33;;
71767;SDS011;59604;52.138;5.446;2023-02-25T05:56:17;9.63;;;1.15;;
71767;SDS011;59604;52.138;5.446;2023-02-25T05:58:46;8.43;;;1.10;;
71767;SDS011;59604;52.138;5.446;2023-02-25T06:01:15;9.82;;;1.33;;
71767;SDS011;59604;52.138;5.446;2023-02-25T06:03:43;8.80;;;0.95;;
71767;SDS011;59604;52.138;5.446;2023-02-25T06:06:11;13.27;;;1.05;;
71767;SDS011;59604;52.138;5.446;2023-02-25T06:08:40;9.32;;;1.27;;
71767;SDS011;59604;52.138;5.446;2023-02-25T06:11:11;10.30;;;1.52;;
71767;SDS011;59604;52.138;5.446;2023-02-25T06:13:42;11.43;;;1.00;;
71767;SDS011;59604;52.138;5.446;2023-02-25T06:16:08;14.60;;;1.58;;
71767;SDS011;59604;52.138;5.446;2023-02-25T06:18:35;8.38;;;1.20;;
71767;SDS011;59604;52.138;5.446;2023-02-25T06:21:03;8.35;;;1.17;;
71767;SDS011;59604;52.138;5.446;2023-02-25T06:23:35;8.98;;;1.40;;
71767;SDS011;59604;52.138;5.446;2023-02-25T06:26:04;6.93;;;1.00;;
71767;SDS011;59604;52.138;5.446;2023-02-25T06:28:33;6.40;;;0.88;;
71767;SDS011;59604;52.138;5.446;2023-02-25T06:31:00;11.43;;;1.20;;
71767;SDS011;59604;52.138;5.446;2023-02-25T06:33:30;6.80;;;1.13;;
71767;SDS011;59604;52.138;5.446;2023-02-25T06:35:57;9.32;;;1.10;;
71767;SDS011;59604;52.138;5.446;2023-02-25T06:38:24;10.70;;;1.10;;
71767;SDS011;59604;52.138;5.446;2023-02-25T06:40:50;6.68;;;0.90;;
71767;SDS011;59604;52.138;5.446;2023-02-25T06:43:17;8.73;;;1.42;;
71767;SDS011;59604;52.138;5.446;2023-02-25T06:45:43;8.38;;;1.13;;
71767;SDS011;59604;52.138;5.446;2023-02-25T06:48:10;10.32;;;1.45;;
71767;SDS011;59604;52.138;5.446;2023-02-25T06:50:37;9.85;;;1.35;;
71767;SDS011;59604;52.138;5.446;2023-02-25T06:53:06;7.05;;;1.25;;
71767;SDS011;59604;52.138;5.446;2023-02-25T06:55:33;11.77;;;1.50;;
71767;SDS011;59604;52.138;5.446;2023-02-25T06:58:00;12.18;;;1.15;;
71767;SDS011;59604;52.138;5.446;2023-02-25T07:00:27;13.25;;;0.95;;
71767;SDS011;59604;52.138;5.446;2023-02-25T07:02:53;10.93;;;1.77;;
71767;SDS011;59604;52.138;5.446;2023-02-25T07:05:20;10.40;;;1.30;;
71767;SDS011;59604;52.138;5.446;2023-02-25T07:07:46;10.90;;;1.23;;
71767;SDS011;59604;52.138;5.446;2023-02-25T07:10:13;6.40;;;1.40;;
71767;SDS011;59604;52.138;5.446;2023-02-25T07:12:39;7.50;;;1.20;;
71767;SDS011;59604;52.138;5.446;2023-02-25T07:15:06;7.43;;;1.17;;
71767;SDS011;59604;52.138;5.446;2023-02-25T07:17:33;7.65;;;1.55;;
71767;SDS011;59604;52.138;5.446;2023-02-25T07:20:00;8.55;;;1.30;;
71767;SDS011;59604;52.138;5.446;2023-02-25T07:22:26;7.80;;;1.23;;
71767;SDS011;59604;52.138;5.446;2023-02-25T07:24:53;7.72;;;1.00;;
71767;SDS011;59604;52.138;5.446;2023-02-25T07:27:20;9.95;;;0.90;;
71767;SDS011;59604;52.138;5.446;2023-02-25T07:29:46;11.75;;;1.42;;
71767;SDS011;59604;52.138;5.446;2023-02-25T07:32:13;7.90;;;1.02;;
71767;SDS011;59604;52.138;5.446;2023-02-25T07:34:39;11.70;;;1.17;;
71767;SDS011;59604;52.138;5.446;2023-02-25T07:37:06;6.95;;;0.93;;
71767;SDS011;59604;52.138;5.446;2023-02-25T07:39:33;8.07;;;1.35;;
71767;SDS011;59604;52.138;5.446;2023-02-25T07:41:59;6.00;;;0.82;;
71767;SDS011;59604;52.138;5.446;2023-02-25T07:44:26;11.27;;;1.42;;
71767;SDS011;59604;52.138;5.446;2023-02-25T07:46:52;11.35;;;1.23;;
71767;SDS011;59604;52.138;5.446;2023-02-25T07:49:19;6.18;;;0.90;;
71767;SDS011;59604;52.138;5.446;2023-02-25T07:51:46;9.75;;;1.40;;
71767;SDS011;59604;52.138;5.446;2023-02-25T07:54:12;14.75;;;1.80;;
71767;SDS011;59604;52.138;5.446;2023-02-25T07:56:40;11.13;;;1.50;;
71767;SDS011;59604;52.138;5.446;2023-02-25T07:59:07;7.68;;;0.90;;
71767;SDS011;59604;52.138;5.446;2023-02-25T08:01:33;7.20;;;1.63;;
71767;SDS011;59604;52.138;5.446;2023-02-25T08:04:01;10.38;;;1.02;;
71767;SDS011;59604;52.138;5.446;2023-02-25T08:06:30;12.63;;;1.20;;
71767;SDS011;59604;52.138;5.446;2023-02-25T08:08:59;6.80;;;1.02;;
71767;SDS011;59604;52.138;5.446;2023-02-25T08:11:26;10.20;;;1.30;;
71767;SDS011;59604;52.138;5.446;2023-02-25T08:13:53;9.40;;;1.30;;
71767;SDS011;59604;52.138;5.446;2023-02-25T08:16:19;6.03;;;0.95;;
71767;SDS011;59604;52.138;5.446;2023-02-25T08:18:47;10.30;;;1.00;;
71767;SDS011;59604;52.138;5.446;2023-02-25T08:21:15;5.90;;;1.00;;
71767;SDS011;59604;52.138;5.446;2023-02-25T08:23:44;12.25;;;1.20;;
71767;SDS011;59604;52.138;5.446;2023-02-25T08:26:10;11.38;;;1.23;;
71767;SDS011;59604;52.138;5.446;2023-02-25T08:28:37;7.47;;;0.90;;
71767;SDS011;59604;52.138;5.446;2023-02-25T08:31:05;10.10;;;1.20;;
71767;SDS011;59604;52.138;5.446;2023-02-25T08:33:33;12.13;;;1.30;;
71767;SDS011;59604;52.138;5.446;2023-02-25T08:36:10;9.00;;;1.00;;
71767;SDS011;59604;52.138;5.446;2023-02-25T08:38:41;11.02;;;1.40;;
71767;SDS011;59604;52.138;5.446;2023-02-25T08:41:08;7.57;;;1.35;;
71767;SDS011;59604;52.138;5.446;2023-02-25T08:43:35;7.05;;;1.00;;
71767;SDS011;59604;52.138;5.446;2023-02-25T08:46:02;9.50;;;1.13;;
71767;SDS011;59604;52.138;5.446;2023-02-25T08:48:31;7.47;;;1.13;;
71767;SDS011;59604;52.138;5.446;2023-02-25T08:51:02;9.07;;;1.02;;
71767;SDS011;59604;52.138;5.446;2023-02-25T08:53:34;8.95;;;0.90;;
71767;SDS011;59604;52.138;5.446;2023-02-25T08:56:08;10.13;;;0.93;;
71767;SDS011;59604;52.138;5.446;2023-02-25T08:58:36;8.25;;;1.20;;
71767;SDS011;59604;52.138;5.446;2023-02-25T09:01:10;7.53;;;1.25;;
71767;SDS011;59604;52.138;5.446;2023-02-25T09:03:40;5.97;;;0.80;;
71767;SDS011;59604;52.138;5.446;2023-02-25T09:06:17;7.90;;;0.90;;
71767;SDS011;59604;52.138;5.446;2023-02-25T09:08:49;9.10;;;1.02;;
71767;SDS011;59604;52.138;5.446;2023-02-25T09:11:18;9.25;;;1.10;;
71767;SDS011;59604;52.138;5.446;2023-02-25T09:13:45;5.82;;;1.00;;
71767;SDS011;59604;52.138;5.446;2023-02-25T09:16:11;4.53;;;0.90;;
71767;SDS011;59604;52.138;5.446;2023-02-25T09:18:41;7.00;;;0.80;;
71767;SDS011;59604;52.138;5.446;2023-02-25T09:21:07;6.90;;;0.73;;
71767;SDS011;59604;52.138;5.446;2023-02-25T09:23:35;8.25;;;1.10;;
71767;SDS011;59604;52.138;5.446;2023-02-25T09:26:03;4.70;;;0.80;;
71767;SDS011;59604;52.138;5.446;2023-02-25T09:28:31;4.20;;;1.00;;
71767;SDS011;59604;52.138;5.446;2023-02-25T09:30:58;7.60;;;0.88;;
71767;SDS011;59604;52.138;5.446;2023-02-25T09:33:24;6.43;;;1.02;;
71767;SDS011;59604;52.138;5.446;2023-02-25T09:35:52;4.72;;;0.80;;
71767;SDS011;59604;52.138;5.446;2023-02-25T09:38:18;5.95;;;0.77;;
71767;SDS011;59604;52.138;5.446;2023-02-25T09:40:46;7.38;;;0.85;;
71767;SDS011;59604;52.138;5.446;2023-02-25T09:45:46;3.85;;;0.50;;
71767;SDS011;59604;52.138;5.446;2023-02-25T09:48:22;6.70;;;1.00;;
71767;SDS011;59604;52.138;5.446;2023-02-25T09:50:53;3.95;;;0.75;;
71767;SDS011;59604;52.138;5.446;2023-02-25T09:53:36;3.47;;;0.68;;
71767;SDS011;59604;52.138;5.446;2023-02-25T09:56:07;5.07;;;0.63;;
71767;SDS011;59604;52.138;5.446;2023-02-25T09:58:37;4.25;;;0.70;;
71767;SDS011;59604;52.138;5.446;2023-02-25T10:01:19;9.27;;;0.73;;
71767;SDS011;59604;52.138;5.446;2023-02-25T10:04:06;7.00;;;1.02;;
71767;SDS011;59604;52.138;5.446;2023-02-25T10:06:42;3.80;;;0.80;;
71767;SDS011;59604;52.138;5.446;2023-02-25T10:17:25;4.90;;;0.65;;
71767;SDS011;59604;52.138;5.446;2023-02-25T10:25:42;7.28;;;0.70;;
71767;SDS011;59604;52.138;5.446;2023-02-25T10:28:17;6.88;;;1.10;;
71767;SDS011;59604;52.138;5.446;2023-02-25T10:30:58;7.70;;;0.80;;
71767;SDS011;59604;52.138;5.446;2023-02-25T10:33:34;5.10;;;0.70;;
71767;SDS011;59604;52.138;5.446;2023-02-25T10:36:06;8.40;;;1.02;;
71767;SDS011;59604;52.138;5.446;2023-02-25T10:38:53;7.90;;;0.80;;
71767;SDS011;59604;52.138;5.446;2023-02-25T10:41:20;6.55;;;0.77;;
71767;SDS011;59604;52.138;5.446;2023-02-25T10:43:49;5.88;;;0.90;;
71767;SDS011;59604;52.138;5.446;2023-02-25T10:49:00;5.53;;;0.80;;
71767;SDS011;59604;52.138;5.446;2023-02-25T10:51:28;7.65;;;0.80;;
71767;SDS011;59604;52.138;5.446;2023-02-25T10:56:22;6.72;;;0.70;;
71767;SDS011;59604;52.138;5.446;2023-02-25T11:01:28;7.43;;;1.13;;
71767;SDS011;59604;52.138;5.446;2023-02-25T11:04:13;5.55;;;0.60;;
71767;SDS011;59604;52.138;5.446;2023-02-25T11:06:43;5.00;;;1.13;;
71767;SDS011;59604;52.138;5.446;2023-02-25T11:11:58;5.95;;;0.77;;
71767;SDS011;59604;52.138;5.446;2023-02-25T11:14:48;5.85;;;0.70;;
71767;SDS011;59604;52.138;5.446;2023-02-25T11:17:15;5.50;;;0.70;;
71767;SDS011;59604;52.138;5.446;2023-02-25T11:19:52;10.10;;;1.10;;
71767;SDS011;59604;52.138;5.446;2023-02-25T11:22:29;4.10;;;0.88;;
71767;SDS011;59604;52.138;5.446;2023-02-25T11:25:02;6.07;;;1.08;;
71767;SDS011;59604;52.138;5.446;2023-02-25T11:27:34;7.38;;;1.15;;
71767;SDS011;59604;52.138;5.446;2023-02-25T11:32:43;3.80;;;0.70;;
71767;SDS011;59604;52.138;5.446;2023-02-25T11:35:17;6.53;;;1.30;;
71767;SDS011;59604;52.138;5.446;2023-02-25T11:37:49;4.47;;;0.90;;
71767;SDS011;59604;52.138;5.446;2023-02-25T11:45:32;5.78;;;1.35;;
71767;SDS011;59604;52.138;5.446;2023-02-25T11:48:12;4.60;;;0.73;;
71767;SDS011;59604;52.138;5.446;2023-02-25T11:53:30;6.13;;;0.70;;
71767;SDS011;59604;52.138;5.446;2023-02-25T12:01:39;7.45;;;0.80;;
71767;SDS011;59604;52.138;5.446;2023-02-25T12:21:53;8.32;;;1.38;;
71767;SDS011;59604;52.138;5.446;2023-02-25T12:35:47;6.50;;;0.95;;
71767;SDS011;59604;52.138;5.446;2023-02-25T12:41:45;5.07;;;0.98;;
71767;SDS011;59604;52.138;5.446;2023-02-25T12:54:57;5.43;;;0.90;;
71767;SDS011;59604;52.138;5.446;2023-02-25T13:09:19;4.75;;;0.98;;
71767;SDS011;59604;52.138;5.446;2023-02-25T13:29:22;7.43;;;1.20;;
71767;SDS011;59604;52.138;5.446;2023-02-25T13:32:18;7.05;;;1.02;;
71767;SDS011;59604;52.138;5.446;2023-02-25T13:38:53;6.63;;;0.90;;
71767;SDS011;59604;52.138;5.446;2023-02-25T13:46:48;7.45;;;1.30;;
71767;SDS011;59604;52.138;5.446;2023-02-25T14:11:28;6.68;;;1.25;;
71767;SDS011;59604;52.138;5.446;2023-02-25T14:16:48;6.45;;;1.10;;
71767;SDS011;59604;52.138;5.446;2023-02-25T14:25:15;7.82;;;1.42;;
71767;SDS011;59604;52.138;5.446;2023-02-25T14:30:50;9.32;;;1.30;;
71767;SDS011;59604;52.138;5.446;2023-02-25T14:39:18;10.07;;;2.20;;
71767;SDS011;59604;52.138;5.446;2023-02-25T14:47:33;4.32;;;0.80;;
71767;SDS011;59604;52.138;5.446;2023-02-25T14:50:15;6.47;;;0.80;;
71767;SDS011;59604;52.138;5.446;2023-02-25T15:12:07;5.55;;;1.50;;
71767;SDS011;59604;52.138;5.446;2023-02-25T15:17:51;4.63;;;0.70;;
71767;SDS011;59604;52.138;5.446;2023-02-25T15:20:38;4.75;;;0.90;;
71767;SDS011;59604;52.138;5.446;2023-02-25T15:23:08;6.72;;;0.90;;
71767;SDS011;59604;52.138;5.446;2023-02-25T15:33:39;4.72;;;0.70;;
71767;SDS011;59604;52.138;5.446;2023-02-25T15:38:41;6.50;;;1.00;;
71767;SDS011;59604;52.138;5.446;2023-02-25T15:49:03;5.50;;;0.82;;
71767;SDS011;59604;52.138;5.446;2023-02-25T15:51:51;4.30;;;0.90;;
71767;SDS011;59604;52.138;5.446;2023-02-25T15:56:59;5.28;;;0.80;;
71767;SDS011;59604;52.138;5.446;2023-02-25T15:59:50;8.60;;;1.20;;
71767;SDS011;59604;52.138;5.446;2023-02-25T16:04:59;7.07;;;0.98;;
71767;SDS011;59604;52.138;5.446;2023-02-25T16:07:31;8.23;;;1.00;;
71767;SDS011;59604;52.138;5.446;2023-02-25T16:13:14;7.93;;;1.27;;
71767;SDS011;59604;52.138;5.446;2023-02-25T16:15:57;10.38;;;2.65;;
71767;SDS011;59604;52.138;5.446;2023-02-25T16:21:06;11.20;;;2.45;;
71767;SDS011;59604;52.138;5.446;2023-02-25T16:23:39;6.20;;;1.00;;
71767;SDS011;59604;52.138;5.446;2023-02-25T16:28:54;12.95;;;3.75;;
71767;SDS011;59604;52.138;5.446;2023-02-25T16:34:09;7.38;;;1.23;;
71767;SDS011;59604;52.138;5.446;2023-02-25T16:37:26;6.28;;;1.08;;
71767;SDS011;59604;52.138;5.446;2023-02-25T16:39:37;7.93;;;1.23;;
71767;SDS011;59604;52.138;5.446;2023-02-25T16:42:07;6.32;;;1.83;;
71767;SDS011;59604;52.138;5.446;2023-02-25T16:44:38;6.47;;;0.98;;
71767;SDS011;59604;52.138;5.446;2023-02-25T16:49:53;9.32;;;2.10;;
71767;SDS011;59604;52.138;5.446;2023-02-25T16:52:29;8.73;;;2.20;;
71767;SDS011;59604;52.138;5.446;2023-02-25T16:55:02;7.93;;;2.10;;
71767;SDS011;59604;52.138;5.446;2023-02-25T16:57:37;5.10;;;1.65;;
71767;SDS011;59604;52.138;5.446;2023-02-25T17:02:48;6.93;;;1.52;;
71767;SDS011;59604;52.138;5.446;2023-02-25T17:05:26;4.57;;;1.20;;
71767;SDS011;59604;52.138;5.446;2023-02-25T17:07:58;7.68;;;2.05;;
71767;SDS011;59604;52.138;5.446;2023-02-25T17:10:30;7.03;;;0.93;;
71767;SDS011;59604;52.138;5.446;2023-02-25T17:13:00;4.50;;;1.27;;
71767;SDS011;59604;52.138;5.446;2023-02-25T17:15:33;6.97;;;1.35;;
71767;SDS011;59604;52.138;5.446;2023-02-25T17:18:09;6.80;;;1.40;;
71767;SDS011;59604;52.138;5.446;2023-02-25T17:20:44;6.90;;;2.00;;
71767;SDS011;59604;52.138;5.446;2023-02-25T17:23:11;8.55;;;2.13;;
71767;SDS011;59604;52.138;5.446;2023-02-25T17:25:40;4.75;;;1.10;;
71767;SDS011;59604;52.138;5.446;2023-02-25T17:28:16;4.95;;;1.55;;
71767;SDS011;59604;52.138;5.446;2023-02-25T17:30:46;6.95;;;2.25;;
71767;SDS011;59604;52.138;5.446;2023-02-25T17:35:50;5.80;;;1.30;;
71767;SDS011;59604;52.138;5.446;2023-02-25T17:38:20;7.70;;;1.50;;
71767;SDS011;59604;52.138;5.446;2023-02-25T17:40:52;7.05;;;1.70;;
71767;SDS011;59604;52.138;5.446;2023-02-25T17:43:24;19.27;;;7.45;;
71767;SDS011;59604;52.138;5.446;2023-02-25T17:45:59;8.70;;;2.08;;
71767;SDS011;59604;52.138;5.446;2023-02-25T17:48:31;9.30;;;1.33;;
71767;SDS011;59604;52.138;5.446;2023-02-25T17:51:06;5.95;;;1.08;;
71767;SDS011;59604;52.138;5.446;2023-02-25T17:56:15;6.18;;;1.23;;
71767;SDS011;59604;52.138;5.446;2023-02-25T17:59:00;6.07;;;1.17;;
71767;SDS011;59604;52.138;5.446;2023-02-25T18:02:17;6.63;;;1.20;;
71767;SDS011;59604;52.138;5.446;2023-02-25T18:04:35;7.15;;;1.52;;
71767;SDS011;59604;52.138;5.446;2023-02-25T18:07:18;5.20;;;1.58;;
71767;SDS011;59604;52.138;5.446;2023-02-25T18:09:44;7.43;;;1.50;;
71767;SDS011;59604;52.138;5.446;2023-02-25T18:12:33;6.43;;;1.48;;
71767;SDS011;59604;52.138;5.446;2023-02-25T18:15:05;6.68;;;1.73;;
71767;SDS011;59604;52.138;5.446;2023-02-25T18:17:41;11.25;;;2.92;;
71767;SDS011;59604;52.138;5.446;2023-02-25T18:20:55;13.60;;;4.50;;
71767;SDS011;59604;52.138;5.446;2023-02-25T18:25:42;8.85;;;2.90;;
71767;SDS011;59604;52.138;5.446;2023-02-25T18:28:13;8.65;;;2.30;;
71767;SDS011;59604;52.138;5.446;2023-02-25T18:30:41;10.65;;;2.88;;
71767;SDS011;59604;52.138;5.446;2023-02-25T18:33:09;10.93;;;3.20;;
71767;SDS011;59604;52.138;5.446;2023-02-25T18:35:37;9.02;;;2.92;;
71767;SDS011;59604;52.138;5.446;2023-02-25T18:38:08;9.05;;;2.83;;
71767;SDS011;59604;52.138;5.446;2023-02-25T18:40:41;6.95;;;2.38;;
71767;SDS011;59604;52.138;5.446;2023-02-25T18:43:10;8.40;;;2.90;;
71767;SDS011;59604;52.138;5.446;2023-02-25T18:45:41;7.50;;;2.20;;
71767;SDS011;59604;52.138;5.446;2023-02-25T18:48:08;8.02;;;2.88;;
71767;SDS011;59604;52.138;5.446;2023-02-25T18:50:35;10.45;;;3.15;;
71767;SDS011;59604;52.138;5.446;2023-02-25T18:53:05;11.73;;;4.15;;
71767;SDS011;59604;52.138;5.446;2023-02-25T18:55:32;11.90;;;4.10;;
71767;SDS011;59604;52.138;5.446;2023-02-25T18:57:59;16.30;;;5.30;;
71767;SDS011;59604;52.138;5.446;2023-02-25T19:00:27;12.63;;;4.63;;
71767;SDS011;59604;52.138;5.446;2023-02-25T19:02:55;12.82;;;4.25;;
71767;SDS011;59604;52.138;5.446;2023-02-25T19:05:24;14.63;;;4.00;;
71767;SDS011;59604;52.138;5.446;2023-02-25T19:07:51;9.90;;;4.13;;
71767;SDS011;59604;52.138;5.446;2023-02-25T19:10:28;10.13;;;3.53;;
71767;SDS011;59604;52.138;5.446;2023-02-25T19:13:02;9.82;;;3.15;;
71767;SDS011;59604;52.138;5.446;2023-02-25T19:15:31;9.35;;;3.50;;
71767;SDS011;59604;52.138;5.446;2023-02-25T19:17:58;11.38;;;3.53;;
71767;SDS011;59604;52.138;5.446;2023-02-25T19:20:26;10.07;;;4.07;;
71767;SDS011;59604;52.138;5.446;2023-02-25T19:22:52;12.15;;;3.58;;
71767;SDS011;59604;52.138;5.446;2023-02-25T19:27:49;10.48;;;3.28;;
71767;SDS011;59604;52.138;5.446;2023-02-25T19:30:17;8.80;;;2.95;;
71767;SDS011;59604;52.138;5.446;2023-02-25T19:32:46;13.40;;;4.45;;
71767;SDS011;59604;52.138;5.446;2023-02-25T19:35:12;16.08;;;5.32;;